createdAt,value
2018-12-12T00:00:11.910Z,2.00
2018-12-12T00:02:44.005Z,2.10
2018-12-12T00:05:18.260Z,2.10
2018-12-12T00:07:53.289Z,2.10
2018-12-12T00:10:28.063Z,2.20
2018-12-12T00:13:03.115Z,2.10
2018-12-12T00:15:37.825Z,2.20
2018-12-12T00:18:10.479Z,2.20
2018-12-12T00:20:44.635Z,2.20
2018-12-12T00:23:19.606Z,2.00
2018-12-12T00:25:54.582Z,2.00
2018-12-12T00:28:27.163Z,1.90
2018-12-12T00:31:01.384Z,2.00
2018-12-12T00:33:33.907Z,2.00
2018-12-12T00:36:10.090Z,2.00
2018-12-12T00:38:44.706Z,2.00
2018-12-12T00:41:17.405Z,1.90
2018-12-12T00:43:55.569Z,2.00
2018-12-12T00:46:30.478Z,1.90
2018-12-12T00:49:05.464Z,1.90
2018-12-12T00:51:40.295Z,1.80
2018-12-12T00:54:15.039Z,1.80
2018-12-12T00:56:49.837Z,1.80
2018-12-12T00:59:24.676Z,1.90
2018-12-12T01:01:59.505Z,1.80
2018-12-12T01:04:33.643Z,1.90
2018-12-12T01:07:06.474Z,1.90
2018-12-12T01:09:40.621Z,2.00
2018-12-12T01:12:13.845Z,2.00
2018-12-12T01:14:48.792Z,2.00
2018-12-12T01:17:23.682Z,2.00
2018-12-12T01:19:58.526Z,2.00
2018-12-12T01:22:31.101Z,2.00
2018-12-12T01:25:03.874Z,2.00
2018-12-12T01:27:38.077Z,2.00
2018-12-12T01:30:12.889Z,2.00
2018-12-12T01:32:47.699Z,1.90
2018-12-12T01:35:22.575Z,1.70
2018-12-12T01:37:57.460Z,1.60
2018-12-12T01:40:31.619Z,1.50
2018-12-12T01:43:06.751Z,1.30
2018-12-12T01:45:41.782Z,1.20
2018-12-12T01:48:14.510Z,1.10
2018-12-12T01:50:48.754Z,0.90
2018-12-12T01:53:23.753Z,0.80
2018-12-12T01:55:58.688Z,0.80
2018-12-12T01:58:31.461Z,0.70
2018-12-12T02:01:05.963Z,0.70
2018-12-12T02:03:40.926Z,0.60
2018-12-12T02:06:15.929Z,0.60
2018-12-12T02:08:48.602Z,0.60
2018-12-12T02:11:27.661Z,0.50
2018-12-12T02:14:02.548Z,0.50
2018-12-12T02:16:35.262Z,0.50
2018-12-12T02:19:09.798Z,0.50
2018-12-12T02:21:44.685Z,0.50
2018-12-12T02:24:17.266Z,0.40
2018-12-12T02:26:51.496Z,0.30
2018-12-12T02:29:24.078Z,0.20
2018-12-12T02:31:58.181Z,0.30
2018-12-12T02:34:32.345Z,0.30
2018-12-12T02:37:07.342Z,0.20
2018-12-12T02:39:40.266Z,0.20
2018-12-12T02:42:12.633Z,0.10
2018-12-12T02:44:47.382Z,0.00
2018-12-12T02:47:20.073Z,0.00
2018-12-12T02:49:55.063Z,0.10
2018-12-12T02:52:29.417Z,0.10
2018-12-12T02:55:00.165Z,0.10
2018-12-12T02:57:34.314Z,0.10
2018-12-12T03:00:09.923Z,0.20
2018-12-12T03:02:44.626Z,0.20
2018-12-12T03:05:19.657Z,0.20
2018-12-12T03:07:54.528Z,0.20
2018-12-12T03:10:29.531Z,0.30
2018-12-12T03:13:02.135Z,0.30
2018-12-12T03:15:34.301Z,0.30
2018-12-12T03:18:08.542Z,0.40
2018-12-12T03:20:43.601Z,0.40
2018-12-12T03:23:16.174Z,0.50
2018-12-12T03:25:48.190Z,0.30
2018-12-12T03:28:22.307Z,0.40
2018-12-12T03:30:57.107Z,0.40
2018-12-12T03:33:32.920Z,0.40
2018-12-12T03:36:07.226Z,0.30
2018-12-12T03:38:41.957Z,0.30
2018-12-12T03:41:16.987Z,0.40
2018-12-12T03:43:51.168Z,0.30
2018-12-12T03:46:25.996Z,0.30
2018-12-12T03:48:58.709Z,0.20
2018-12-12T03:51:33.111Z,0.20
2018-12-12T03:54:08.177Z,0.20
2018-12-12T03:56:40.651Z,0.20
2018-12-12T03:59:15.054Z,0.10
2018-12-12T04:01:49.998Z,0.20
2018-12-12T04:04:20.677Z,0.20
2018-12-12T04:06:54.953Z,0.20
2018-12-12T04:09:27.782Z,0.20
2018-12-12T04:11:59.993Z,0.20
2018-12-12T04:14:34.319Z,0.20
2018-12-12T04:17:09.266Z,0.30
2018-12-12T04:19:44.097Z,0.30
2018-12-12T04:22:19.231Z,0.30
2018-12-12T04:24:51.870Z,0.20
2018-12-12T04:27:26.858Z,0.30
2018-12-12T04:29:59.608Z,0.30
2018-12-12T04:32:33.869Z,0.30
2018-12-12T04:35:08.959Z,0.30
2018-12-12T04:37:43.886Z,0.30
2018-12-12T04:40:18.984Z,0.40
2018-12-12T04:42:53.930Z,0.30
2018-12-12T04:45:26.750Z,0.30
2018-12-12T04:48:01.102Z,0.40
2018-12-12T04:50:35.291Z,0.30
2018-12-12T04:53:10.271Z,0.30
2018-12-12T04:55:42.906Z,0.40
2018-12-12T04:58:17.145Z,0.40
2018-12-12T05:03:16.471Z,0.40
2018-12-12T05:05:57.526Z,0.30
2018-12-12T05:08:31.727Z,0.30
2018-12-12T05:11:04.464Z,0.30
2018-12-12T05:13:39.032Z,0.20
2018-12-12T05:16:13.854Z,0.30
2018-12-12T05:18:48.074Z,0.30
2018-12-12T05:21:22.821Z,0.30
2018-12-12T05:23:51.806Z,0.40
2018-12-12T05:26:26.433Z,0.40
2018-12-12T05:29:01.567Z,0.40
2018-12-12T05:31:30.417Z,0.50
2018-12-12T05:34:04.873Z,0.50
2018-12-12T05:36:41.234Z,0.50
2018-12-12T05:39:15.629Z,0.50
2018-12-12T05:41:52.434Z,0.40
2018-12-12T05:44:27.373Z,0.40
2018-12-12T05:47:08.525Z,0.30
2018-12-12T05:49:37.388Z,0.30
2018-12-12T05:52:06.231Z,0.30
2018-12-12T05:54:35.209Z,0.30
2018-12-12T05:57:04.084Z,0.30
2018-12-12T05:59:33.010Z,0.30
2018-12-12T06:02:02.371Z,0.30
2018-12-12T06:04:31.210Z,0.30
2018-12-12T06:07:00.083Z,0.40
2018-12-12T06:09:28.992Z,0.40
2018-12-12T06:12:04.369Z,0.50
2018-12-12T06:14:45.282Z,0.40
2018-12-12T06:17:14.240Z,0.30
2018-12-12T06:19:43.934Z,0.20
2018-12-12T06:22:13.470Z,0.20
2018-12-12T06:24:42.439Z,0.20
2018-12-12T06:27:11.291Z,0.20
2018-12-12T06:31:30.708Z,0.10
2018-12-12T06:33:59.546Z,0.10
2018-12-12T06:36:44.320Z,0.10
2018-12-12T06:39:16.498Z,0.10
2018-12-12T06:41:45.377Z,0.00
2018-12-12T06:44:14.351Z,0.00
2018-12-12T06:46:43.208Z,-0.10
2018-12-12T06:49:12.055Z,-0.20
2018-12-12T06:51:40.956Z,-0.20
2018-12-12T06:54:09.835Z,-0.10
2018-12-12T06:56:38.713Z,-0.10
2018-12-12T06:59:07.564Z,0.00
2018-12-12T07:01:37.016Z,0.10
2018-12-12T07:04:15.895Z,0.10
2018-12-12T07:06:44.991Z,0.10
2018-12-12T07:09:13.913Z,0.30
2018-12-12T07:11:42.754Z,0.30
2018-12-12T07:14:11.989Z,0.40
2018-12-12T07:16:40.946Z,0.40
2018-12-12T07:19:09.782Z,0.40
2018-12-12T07:21:38.776Z,0.40
2018-12-12T07:24:07.631Z,0.30
2018-12-12T07:26:36.459Z,0.30
2018-12-12T07:29:05.484Z,0.30
2018-12-12T07:31:34.346Z,0.30
2018-12-12T07:34:04.667Z,0.30
2018-12-12T07:36:33.630Z,0.30
2018-12-12T07:39:02.616Z,0.30
2018-12-12T07:41:31.832Z,0.50
2018-12-12T07:44:01.058Z,0.60
2018-12-12T07:46:35.682Z,0.60
2018-12-12T07:49:05.208Z,0.60
2018-12-12T07:51:34.065Z,0.60
2018-12-12T07:54:02.900Z,0.70
2018-12-12T07:56:32.062Z,0.80
2018-12-12T07:59:06.440Z,0.80
2018-12-12T08:01:38.687Z,0.90
2018-12-12T08:04:07.584Z,1.00
2018-12-12T08:06:36.434Z,1.00
2018-12-12T08:09:08.336Z,1.10
2018-12-12T08:11:37.194Z,1.30
2018-12-12T08:14:08.838Z,1.50
2018-12-12T08:16:41.972Z,1.60
2018-12-12T08:19:10.936Z,1.70
2018-12-12T08:21:39.804Z,1.80
2018-12-12T08:24:08.651Z,1.90
2018-12-12T08:26:37.532Z,2.00
2018-12-12T08:29:06.427Z,2.10
2018-12-12T08:31:35.277Z,2.20
2018-12-12T08:34:04.155Z,2.30
2018-12-12T08:36:32.998Z,2.50
2018-12-12T08:39:01.886Z,2.50
2018-12-12T08:41:30.727Z,2.60
2018-12-12T08:43:59.567Z,2.60
2018-12-12T08:46:28.455Z,2.60
2018-12-12T08:48:57.298Z,2.60
2018-12-12T08:51:26.190Z,2.60
2018-12-12T08:53:55.044Z,2.70
2018-12-12T08:56:23.874Z,2.70
2018-12-12T08:58:52.775Z,2.80
2018-12-12T09:01:21.749Z,2.90
2018-12-12T09:03:50.708Z,2.90
2018-12-12T09:06:19.598Z,2.90
2018-12-12T09:08:48.428Z,2.80
2018-12-12T09:11:17.708Z,2.70
2018-12-12T09:13:46.587Z,2.70
2018-12-12T09:16:15.416Z,2.70
2018-12-12T09:18:44.253Z,2.70
2018-12-12T09:21:13.122Z,2.70
2018-12-12T09:23:42.010Z,2.70
2018-12-12T09:26:10.904Z,2.80
2018-12-12T09:28:40.019Z,2.70
2018-12-12T09:31:08.853Z,2.60
2018-12-12T09:33:37.724Z,2.50
2018-12-12T09:36:06.583Z,2.40
2018-12-12T09:38:35.485Z,2.40
2018-12-12T09:41:04.358Z,2.40
2018-12-12T09:43:33.198Z,2.50
2018-12-12T09:46:02.121Z,2.50
2018-12-12T09:48:30.969Z,2.40
2018-12-12T09:51:06.886Z,2.40
2018-12-12T09:53:30.705Z,2.40
2018-12-12T09:55:59.578Z,2.50
2018-12-12T09:58:28.468Z,2.60
2018-12-12T10:00:57.291Z,2.60
2018-12-12T10:03:31.161Z,2.60
2018-12-12T10:05:57.059Z,2.60
2018-12-12T10:08:25.962Z,2.70
2018-12-12T10:10:54.863Z,2.80
2018-12-12T10:13:23.690Z,2.80
2018-12-12T10:15:52.545Z,2.80
2018-12-12T10:18:21.498Z,2.80
2018-12-12T10:20:50.321Z,2.90
2018-12-12T10:23:19.178Z,3.00
2018-12-12T10:25:48.080Z,3.00
2018-12-12T10:28:16.922Z,3.10
2018-12-12T10:30:45.774Z,3.10
2018-12-12T10:33:14.645Z,3.10
2018-12-12T10:35:43.542Z,3.10
2018-12-12T10:38:12.425Z,3.10
2018-12-12T10:40:41.361Z,3.10
2018-12-12T10:43:10.178Z,3.00
2018-12-12T10:45:39.016Z,3.10
2018-12-12T10:48:08.303Z,3.00
2018-12-12T10:50:37.593Z,3.00
2018-12-12T10:53:06.462Z,3.00
2018-12-12T10:55:35.375Z,3.10
2018-12-12T10:58:04.287Z,3.20
2018-12-12T11:00:35.577Z,3.30
2018-12-12T11:03:09.636Z,3.40
2018-12-12T11:05:38.539Z,3.30
2018-12-12T11:08:07.445Z,3.30
2018-12-12T11:10:36.430Z,3.30
2018-12-12T11:13:05.276Z,3.40
2018-12-12T11:15:34.157Z,3.50
2018-12-12T11:18:03.042Z,3.50
2018-12-12T11:20:31.888Z,3.50
2018-12-12T11:23:00.749Z,3.40
2018-12-12T11:25:29.650Z,3.40
2018-12-12T11:27:58.488Z,3.50
2018-12-12T11:30:27.365Z,3.60
2018-12-12T11:32:56.573Z,3.60
2018-12-12T11:35:25.430Z,3.60
2018-12-12T11:37:54.308Z,3.60
2018-12-12T11:40:23.203Z,3.70
2018-12-12T11:42:52.040Z,3.60
2018-12-12T11:45:20.914Z,3.60
2018-12-12T11:47:49.839Z,3.60
2018-12-12T11:50:18.685Z,3.50
2018-12-12T11:52:47.576Z,3.40
2018-12-12T11:55:16.851Z,3.40
2018-12-12T11:57:45.950Z,3.30
2018-12-12T12:00:14.798Z,3.30
2018-12-12T12:02:43.694Z,3.20
2018-12-12T12:05:12.551Z,3.10
2018-12-12T12:07:41.408Z,3.00
2018-12-12T12:10:11.379Z,3.00
2018-12-12T12:12:40.252Z,2.90
2018-12-12T12:15:09.522Z,2.90
2018-12-12T12:17:38.382Z,3.00
2018-12-12T12:20:07.451Z,2.90
2018-12-12T12:22:36.304Z,2.90
2018-12-12T12:25:05.456Z,2.90
2018-12-12T12:27:34.382Z,3.00
2018-12-12T12:30:03.362Z,3.00
2018-12-12T12:32:32.194Z,3.00
2018-12-12T12:35:01.084Z,3.00
2018-12-12T12:37:29.912Z,3.00
2018-12-12T12:39:59.356Z,2.90
2018-12-12T12:42:28.286Z,2.80
2018-12-12T12:44:57.128Z,2.70
2018-12-12T12:47:25.969Z,2.60
2018-12-12T12:49:54.854Z,2.60
2018-12-12T12:52:23.744Z,2.60
2018-12-12T12:54:52.587Z,2.60
2018-12-12T12:57:21.441Z,2.70
2018-12-12T12:59:50.322Z,2.70
2018-12-12T13:02:19.152Z,2.70
2018-12-12T13:04:48.050Z,2.70
2018-12-12T13:07:16.924Z,2.70
2018-12-12T13:09:45.772Z,2.70
2018-12-12T13:12:14.653Z,2.60
2018-12-12T13:14:43.705Z,2.60
2018-12-12T13:17:12.556Z,2.50
2018-12-12T13:19:41.462Z,2.40
2018-12-12T13:22:10.300Z,2.40
2018-12-12T13:24:39.138Z,2.30
2018-12-12T13:27:08.038Z,2.30
2018-12-12T13:29:36.882Z,2.30
2018-12-12T13:32:05.737Z,2.30
2018-12-12T13:34:34.631Z,2.30
2018-12-12T13:37:03.575Z,2.30
2018-12-12T13:39:32.429Z,2.30
2018-12-12T13:42:01.295Z,2.30
2018-12-12T13:44:30.145Z,2.20
2018-12-12T13:46:59.033Z,2.20
2018-12-12T13:52:05.745Z,2.10
2018-12-12T13:54:34.752Z,2.00
2018-12-12T13:57:03.722Z,2.00
2018-12-12T13:59:32.759Z,2.00
2018-12-12T14:02:01.748Z,2.00
2018-12-12T14:04:30.665Z,1.90
2018-12-12T14:06:59.531Z,2.00
2018-12-12T14:09:28.729Z,2.00
2018-12-12T14:11:57.716Z,2.00
2018-12-12T14:14:26.561Z,2.00
2018-12-12T14:16:56.203Z,2.00
2018-12-12T14:19:25.113Z,1.90
2018-12-12T14:21:53.946Z,1.90
2018-12-12T14:24:23.112Z,1.90
2018-12-12T14:26:52.065Z,1.80
2018-12-12T14:29:20.942Z,1.80
2018-12-12T14:31:49.794Z,1.80
2018-12-12T14:34:18.690Z,1.80
2018-12-12T14:36:47.730Z,1.80
2018-12-12T14:39:17.010Z,1.80
2018-12-12T14:41:45.941Z,1.80
2018-12-12T14:44:14.944Z,1.80
2018-12-12T14:46:43.874Z,1.80
2018-12-12T14:49:12.782Z,1.80
2018-12-12T14:51:41.696Z,1.80
2018-12-12T14:54:10.605Z,1.80
2018-12-12T14:56:39.536Z,1.80
2018-12-12T14:59:08.483Z,1.80
2018-12-12T15:01:37.495Z,1.80
2018-12-12T15:04:06.371Z,1.80
2018-12-12T15:06:35.294Z,1.80
2018-12-12T15:09:06.363Z,1.80
2018-12-12T15:11:35.696Z,1.80
2018-12-12T15:14:04.780Z,1.80
2018-12-12T15:16:33.677Z,1.80
2018-12-12T15:19:02.670Z,1.80
2018-12-12T15:21:31.583Z,1.80
2018-12-12T15:24:00.537Z,1.70
2018-12-12T15:26:29.393Z,1.70
2018-12-12T15:28:58.625Z,1.70
2018-12-12T15:31:27.529Z,1.70
2018-12-12T15:33:56.420Z,1.80
2018-12-12T15:36:25.321Z,1.80
2018-12-12T15:38:54.463Z,1.80
2018-12-12T15:41:23.353Z,1.80
2018-12-12T15:43:53.970Z,1.80
2018-12-12T15:46:22.892Z,1.80
2018-12-12T15:48:52.417Z,1.80
2018-12-12T15:51:21.496Z,1.80
2018-12-12T15:53:50.373Z,1.80
2018-12-12T15:56:19.253Z,1.80
2018-12-12T15:58:48.432Z,1.70
2018-12-12T16:01:17.455Z,1.70
2018-12-12T16:03:46.414Z,1.80
2018-12-12T16:06:15.475Z,1.80
2018-12-12T16:08:44.375Z,1.90
2018-12-12T16:11:13.260Z,1.90
2018-12-12T16:13:42.166Z,1.80
2018-12-12T16:16:11.177Z,1.80
2018-12-12T16:18:40.088Z,1.90
2018-12-12T16:21:08.981Z,1.90
2018-12-12T16:23:37.885Z,1.90
2018-12-12T16:26:06.809Z,1.90
2018-12-12T16:28:36.102Z,1.90
2018-12-12T16:31:04.993Z,1.90
2018-12-12T16:33:33.977Z,1.90
2018-12-12T16:36:02.957Z,1.90
2018-12-12T16:38:31.946Z,1.90
2018-12-12T16:41:01.048Z,2.00
2018-12-12T16:43:30.047Z,2.00
2018-12-12T16:45:59.003Z,2.00
2018-12-12T16:48:27.982Z,2.00
2018-12-12T16:50:57.239Z,2.00
2018-12-12T16:53:26.454Z,2.00
2018-12-12T16:55:55.705Z,2.10
2018-12-12T16:58:24.997Z,2.00
2018-12-12T17:00:54.310Z,2.00
2018-12-12T17:03:23.528Z,2.00
2018-12-12T17:05:52.683Z,2.00
2018-12-12T17:08:21.876Z,2.00
2018-12-12T17:10:51.114Z,2.00
2018-12-12T17:13:20.222Z,2.00
2018-12-12T17:15:49.377Z,2.00
2018-12-12T17:18:18.555Z,2.00
2018-12-12T17:20:47.709Z,2.00
2018-12-12T17:23:16.867Z,2.00
2018-12-12T17:25:46.050Z,1.90
2018-12-12T17:28:15.400Z,1.90
2018-12-12T17:30:45.380Z,2.00
2018-12-12T17:33:14.617Z,2.00
2018-12-12T17:35:43.767Z,2.00
2018-12-12T17:38:12.903Z,2.00
2018-12-12T17:40:42.053Z,1.90
2018-12-12T17:43:11.159Z,1.90
2018-12-12T17:45:40.402Z,1.80
2018-12-12T17:48:09.596Z,1.80
2018-12-12T17:50:38.755Z,1.80
2018-12-12T17:53:08.038Z,1.90
2018-12-12T17:55:38.225Z,1.80
2018-12-12T17:58:07.697Z,1.80
2018-12-12T18:00:37.075Z,1.80
2018-12-12T18:03:07.355Z,1.80
2018-12-12T18:05:37.137Z,1.70
2018-12-12T18:08:06.301Z,1.70
2018-12-12T18:10:35.906Z,1.70
2018-12-12T18:13:05.121Z,1.70
2018-12-12T18:15:34.317Z,1.60
2018-12-12T18:18:03.459Z,1.60
2018-12-12T18:20:32.621Z,1.70
2018-12-12T18:23:01.824Z,1.70
2018-12-12T18:25:31.200Z,1.70
2018-12-12T18:28:00.354Z,1.80
2018-12-12T18:30:30.330Z,1.80
2018-12-12T18:32:59.581Z,1.80
2018-12-12T18:35:28.926Z,1.70
2018-12-12T18:37:58.121Z,1.70
2018-12-12T18:40:27.277Z,1.80
2018-12-12T18:42:57.703Z,1.80
2018-12-12T18:45:26.995Z,1.80
2018-12-12T18:47:56.767Z,1.70
2018-12-12T18:50:26.791Z,1.60
2018-12-12T18:52:55.939Z,1.60
2018-12-12T18:55:25.453Z,1.60
2018-12-12T18:57:54.669Z,1.60
2018-12-12T19:00:23.951Z,1.60
2018-12-12T19:02:53.122Z,1.70
2018-12-12T19:05:28.113Z,1.70
2018-12-12T19:07:53.710Z,1.70
2018-12-12T19:10:22.924Z,1.70
2018-12-12T19:12:53.123Z,1.70
2018-12-12T19:15:22.861Z,1.70
2018-12-12T19:17:51.933Z,1.70
2018-12-12T19:20:24.995Z,1.70
2018-12-12T19:22:54.255Z,1.70
2018-12-12T19:25:23.445Z,1.60
2018-12-12T19:27:52.690Z,1.60
2018-12-12T19:30:21.827Z,1.50
2018-12-12T19:32:51.138Z,1.50
2018-12-12T19:35:20.447Z,1.50
2018-12-12T19:37:49.735Z,1.60
2018-12-12T19:40:19.127Z,1.50
2018-12-12T19:42:48.310Z,1.50
2018-12-12T19:45:17.895Z,1.50
2018-12-12T19:47:47.106Z,1.50
2018-12-12T19:50:16.564Z,1.50
2018-12-12T19:52:45.946Z,1.50
2018-12-12T19:55:15.540Z,1.50
2018-12-12T19:57:44.797Z,1.50
2018-12-12T20:00:14.205Z,1.50
2018-12-12T20:02:43.514Z,1.60
2018-12-12T20:05:12.927Z,1.60
2018-12-12T20:07:42.187Z,1.70
2018-12-12T20:10:11.459Z,1.80
2018-12-12T20:12:40.682Z,1.80
2018-12-12T20:15:14.166Z,1.80
2018-12-12T20:17:43.423Z,1.80
2018-12-12T20:20:12.643Z,1.80
2018-12-12T20:22:41.907Z,1.80
2018-12-12T20:25:11.044Z,1.80
2018-12-12T20:27:41.741Z,1.80
2018-12-12T20:30:11.206Z,1.90
2018-12-12T20:32:40.337Z,1.90
2018-12-12T20:35:09.662Z,1.90
2018-12-12T20:37:39.620Z,1.90
2018-12-12T20:40:08.868Z,1.90
2018-12-12T20:42:38.065Z,2.00
2018-12-12T20:45:08.134Z,1.90
2018-12-12T20:47:37.387Z,1.90
2018-12-12T20:50:07.596Z,1.90
2018-12-12T20:52:36.838Z,1.80
2018-12-12T20:55:06.283Z,1.80
2018-12-12T20:57:35.479Z,1.90
2018-12-12T21:00:06.522Z,1.80
2018-12-12T21:02:35.820Z,1.90
2018-12-12T21:05:05.275Z,1.90
2018-12-12T21:07:34.475Z,1.90
2018-12-12T21:10:03.762Z,1.90
2018-12-12T21:12:32.908Z,1.90
2018-12-12T21:15:02.314Z,1.90
2018-12-12T21:17:31.561Z,1.90
2018-12-12T21:20:00.782Z,1.90
2018-12-12T21:22:30.031Z,2.00
2018-12-12T21:24:59.974Z,1.90
2018-12-12T21:27:29.210Z,2.00
2018-12-12T21:29:59.231Z,2.00
2018-12-12T21:32:28.402Z,2.00
2018-12-12T21:34:57.568Z,2.00
2018-12-12T21:37:26.746Z,2.00
2018-12-12T21:39:55.890Z,1.90
2018-12-12T21:42:25.174Z,2.00
2018-12-12T21:44:54.301Z,2.00
2018-12-12T21:47:24.254Z,2.00
2018-12-12T21:49:53.594Z,2.00
2018-12-12T21:52:22.819Z,1.90
2018-12-12T21:54:52.075Z,2.00
2018-12-12T21:57:21.374Z,2.00
2018-12-12T21:59:50.574Z,2.00
2018-12-12T22:02:19.747Z,2.00
2018-12-12T22:04:48.924Z,2.00
2018-12-12T22:07:18.153Z,2.10
2018-12-12T22:09:47.366Z,2.00
2018-12-12T22:12:16.659Z,2.10
2018-12-12T22:14:46.082Z,2.00
2018-12-12T22:17:15.259Z,2.10
2018-12-12T22:19:44.440Z,2.00
2018-12-12T22:22:13.712Z,2.00
2018-12-12T22:24:42.955Z,2.00
2018-12-12T22:27:12.121Z,2.00
2018-12-12T22:29:41.366Z,2.00
2018-12-12T22:32:10.666Z,2.00
2018-12-12T22:34:39.913Z,1.90
2018-12-12T22:37:09.391Z,1.90
2018-12-12T22:39:38.669Z,1.90
2018-12-12T22:42:07.868Z,1.90
2018-12-12T22:44:37.057Z,2.00
2018-12-12T22:47:06.241Z,2.00
2018-12-12T22:49:35.482Z,2.00
2018-12-12T22:52:04.639Z,2.00
2018-12-12T22:54:33.779Z,2.00
2018-12-12T22:57:02.913Z,2.00
2018-12-12T22:59:32.187Z,2.10
2018-12-12T23:02:01.419Z,2.10
2018-12-12T23:04:30.619Z,2.10
2018-12-12T23:06:59.821Z,2.00
2018-12-12T23:09:28.957Z,2.00
2018-12-12T23:11:58.092Z,2.00
2018-12-12T23:14:27.291Z,1.90
2018-12-12T23:16:56.462Z,1.90
2018-12-12T23:19:25.594Z,1.90
2018-12-12T23:21:54.829Z,1.90
2018-12-12T23:24:25.221Z,1.90
2018-12-12T23:26:54.497Z,1.90
2018-12-12T23:29:23.637Z,2.00
2018-12-12T23:31:52.787Z,2.00
2018-12-12T23:34:21.947Z,2.00
2018-12-12T23:36:51.100Z,2.00
2018-12-12T23:39:20.227Z,2.00
2018-12-12T23:41:49.365Z,2.00
2018-12-12T23:44:18.478Z,2.10
2018-12-12T23:46:47.809Z,2.00
2018-12-12T23:49:16.951Z,2.10
2018-12-12T23:51:46.078Z,2.10
2018-12-12T23:54:15.227Z,2.10
2018-12-12T23:56:44.332Z,2.00
2018-12-12T23:59:13.486Z,2.10
